Time;durP1;ratioP1;P1;durP2;ratioP2;P2;SDS_P1;SDS_P2;PMS_P1;PMS_P2;Temp;Humidity;BMP_temperature;BMP_pressure;BME280_temperature;BME280_humidity;BME280_pressure;Samples;Min_cycle;Max_cycle;Signal;HPM_P1;HPM_P2
2022/05/16 00:01:54;;;;;;;7.65;2.45;;;;;;;19.45;35.85;98774.25;5018503;28;20018;-49
2022/05/16 00:04:20;;;;;;;6.43;2.38;;;;;;;19.46;35.85;98775.88;5018400;28;20029;-48
2022/05/16 00:06:46;;;;;;;6.72;2.20;;;;;;;19.47;35.89;98779.31;5018314;28;20018;-49
2022/05/16 00:09:12;;;;;;;8.32;2.13;;;;;;;19.42;36.04;98780.09;5018418;28;20443;-49
2022/05/16 00:11:38;;;;;;;9.43;2.50;;;;;;;19.38;35.88;98781.66;5018323;28;20033;-48
2022/05/16 00:14:05;;;;;;;7.18;2.58;;;;;;;19.36;36.06;98773.13;5018398;28;20032;-49
2022/05/16 00:16:31;;;;;;;7.15;1.95;;;;;;;19.33;36.12;98779.75;5018295;28;20022;-49
2022/05/16 00:18:56;;;;;;;7.43;2.17;;;;;;;19.30;36.12;98788.25;5018352;28;20029;-48
2022/05/16 00:21:22;;;;;;;8.77;2.50;;;;;;;19.24;36.41;98775.19;5000545;28;20407;-49
2022/05/16 00:23:48;;;;;;;9.05;2.28;;;;;;;19.16;36.47;98779.09;5000753;28;20026;-49
2022/05/16 00:26:13;;;;;;;10.75;2.28;;;;;;;19.12;36.52;98775.34;5018211;28;20033;-49
2022/05/16 00:28:39;;;;;;;6.72;2.30;;;;;;;19.09;36.71;98770.53;5018114;28;20022;-49
2022/05/16 00:31:05;;;;;;;6.55;2.05;;;;;;;19.06;36.85;98765.72;5018198;28;20101;-49
2022/05/16 00:33:32;;;;;;;8.10;2.20;;;;;;;19.07;36.94;98767.31;5018127;28;20042;-48
2022/05/16 00:35:58;;;;;;;6.95;2.53;;;;;;;19.05;36.83;98770.22;5000471;28;20041;-49
2022/05/16 00:38:24;;;;;;;8.23;2.38;;;;;;;19.08;36.89;98764.41;5018103;28;20167;-49
2022/05/16 00:40:49;;;;;;;7.32;2.40;;;;;;;19.07;37.21;98765.44;5018393;28;20476;-49
2022/05/16 00:44:00;;;;;;;16.48;2.95;;;;;;;19.04;37.41;98765.19;5018077;28;20222;-49
2022/05/16 00:46:30;;;;;;;7.72;2.60;;;;;;;19.05;37.31;98764.09;4938112;29;20532;-48
2022/05/16 00:48:57;;;;;;;11.00;2.45;;;;;;;19.03;37.20;98761.69;4938183;29;20055;-49
2022/05/16 00:51:28;;;;;;;7.43;2.28;;;;;;;19.08;37.09;98764.41;4938075;29;20046;-49
2022/05/16 00:54:09;;;;;;;9.45;2.35;;;;;;;19.13;37.11;98761.78;4938275;29;20411;-49
2022/05/16 00:56:36;;;;;;;16.33;3.83;;;;;;;19.15;37.01;98778.28;4938044;29;20788;-49
2022/05/16 00:59:02;;;;;;;6.57;2.33;;;;;;;19.16;36.87;98784.44;4937987;29;20142;-48
2022/05/16 01:06:59;;;;;;;9.88;3.00;;;;;;;19.14;36.31;98805.16;4935006;29;20046;-48
2022/05/16 01:09:25;;;;;;;12.52;3.33;;;;;;;19.16;36.22;98808.38;4935079;29;20503;-49
2022/05/16 01:11:52;;;;;;;10.18;2.50;;;;;;;19.17;35.93;98817.94;4935063;29;20656;-49
2022/05/16 01:14:45;;;;;;;13.27;3.22;;;;;;;19.22;35.34;98833.97;4935036;29;20028;-48
2022/05/16 01:17:12;;;;;;;10.68;2.40;;;;;;;19.27;35.56;98836.66;4974513;28;20041;-49
2022/05/16 01:19:38;;;;;;;8.88;2.58;;;;;;;19.29;35.05;98845.19;4996966;28;20479;-48
2022/05/16 01:22:21;;;;;;;12.10;2.72;;;;;;;19.33;34.97;98848.94;5014517;28;20590;-48
2022/05/16 01:24:47;;;;;;;10.85;2.80;;;;;;;19.42;35.03;98848.47;4997265;28;20030;-48
2022/05/16 01:27:13;;;;;;;8.77;2.45;;;;;;;19.45;34.95;98847.97;5014313;28;20018;-48
2022/05/16 01:29:38;;;;;;;13.07;3.08;;;;;;;19.49;34.51;98867.72;5014297;28;20518;-49
2022/05/16 01:32:04;;;;;;;11.23;3.25;;;;;;;19.53;34.35;98874.94;4996684;28;20036;-49
2022/05/16 01:34:30;;;;;;;8.82;2.17;;;;;;;19.55;34.14;98872.03;5014297;28;20483;-48
2022/05/16 01:36:56;;;;;;;10.02;2.67;;;;;;;19.58;34.13;98847.56;4996623;28;20038;-48
2022/05/16 01:39:22;;;;;;;13.73;3.08;;;;;;;19.63;33.81;98860.91;5014185;28;20045;-48
2022/05/16 01:41:48;;;;;;;11.93;2.78;;;;;;;19.63;33.79;98860.09;5014118;28;20033;-49
2022/05/16 01:44:13;;;;;;;14.80;3.70;;;;;;;19.55;35.17;98858.72;5014317;28;20076;-49
2022/05/16 01:46:40;;;;;;;13.30;3.03;;;;;;;19.46;34.83;98860.25;4996460;28;20471;-49
2022/05/16 01:49:09;;;;;;;14.10;2.92;;;;;;;19.43;34.58;98856.22;5013958;28;20510;-49
2022/05/16 01:51:35;;;;;;;13.63;2.60;;;;;;;19.45;34.13;98854.09;5013942;28;20053;-49
2022/05/16 01:54:03;;;;;;;11.05;3.30;;;;;;;19.43;34.36;98863.41;5013923;28;20040;-48
2022/05/16 01:56:33;;;;;;;12.77;3.58;;;;;;;19.40;34.52;98874.53;5013701;28;20087;-49
2022/05/16 01:59:01;;;;;;;13.95;3.13;;;;;;;19.36;34.51;98861.75;5013819;28;20091;-48
2022/05/16 02:01:28;;;;;;;13.88;2.40;;;;;;;19.34;34.44;98869.19;5013786;28;20022;-48
2022/05/16 02:03:53;;;;;;;9.88;2.83;;;;;;;19.30;34.21;98864.63;4996136;28;20021;-49
2022/05/16 02:06:19;;;;;;;11.13;2.85;;;;;;;19.25;34.17;98865.38;5013649;28;20092;-49
2022/05/16 02:08:47;;;;;;;11.43;2.78;;;;;;;19.21;34.04;98869.59;5013589;28;20080;-49
2022/05/16 02:11:14;;;;;;;10.50;2.70;;;;;;;19.19;34.00;98871.72;4995949;28;20630;-48
2022/05/16 02:13:41;;;;;;;11.88;2.78;;;;;;;19.17;33.48;98873.81;5013605;28;20041;-49
2022/05/16 02:16:07;;;;;;;9.73;2.17;;;;;;;19.17;33.54;98868.50;5013093;28;20064;-49
2022/05/16 02:18:34;;;;;;;9.70;2.45;;;;;;;19.19;33.67;98866.38;5013501;28;20380;-49
2022/05/16 02:26:28;;;;;;;10.68;3.13;;;;;;;19.37;32.95;98873.19;5013658;28;20028;-49
2022/05/16 02:28:54;;;;;;;10.18;2.75;;;;;;;19.40;32.98;98872.72;4995585;28;20437;-48
2022/05/16 02:31:20;;;;;;;11.80;2.60;;;;;;;19.41;32.92;98878.81;4995552;28;20060;-49
2022/05/16 02:33:47;;;;;;;9.23;2.70;;;;;;;19.41;32.78;98870.84;5013236;28;20399;-49
2022/05/16 02:36:13;;;;;;;13.05;3.13;;;;;;;19.42;32.97;98869.78;5013124;28;20022;-49
2022/05/16 02:38:39;;;;;;;12.57;2.45;;;;;;;19.43;32.98;98866.06;4995447;28;20037;-49
2022/05/16 02:41:04;;;;;;;10.00;2.30;;;;;;;19.44;33.00;98873.81;5012995;28;20032;-48
2022/05/16 02:43:30;;;;;;;12.32;2.75;;;;;;;19.47;32.82;98869.81;5013030;28;20062;-48
2022/05/16 02:45:56;;;;;;;11.25;2.70;;;;;;;19.47;32.90;98867.97;4995254;28;20034;-48
2022/05/16 02:48:21;;;;;;;12.95;2.97;;;;;;;19.49;32.72;98862.38;4995138;28;20736;-48
2022/05/16 02:50:47;;;;;;;10.80;2.22;;;;;;;19.49;32.89;98857.84;5012852;28;20022;-49
2022/05/16 02:53:12;;;;;;;8.98;2.30;;;;;;;19.48;32.79;98853.59;5012843;28;20068;-48
2022/05/16 02:55:39;;;;;;;8.45;2.45;;;;;;;19.49;32.97;98849.88;5012609;28;20041;-48
2022/05/16 02:58:07;;;;;;;9.20;2.13;;;;;;;19.50;32.96;98856.03;5012705;28;20407;-48
2022/05/16 03:00:33;;;;;;;9.68;3.67;;;;;;;19.50;33.15;98861.34;5012666;28;20109;-49
2022/05/16 03:02:59;;;;;;;8.27;2.58;;;;;;;19.48;33.03;98874.09;4995019;28;20101;-49
2022/05/16 03:05:25;;;;;;;9.35;2.78;;;;;;;19.43;33.15;98869.53;5012729;28;20422;-49
2022/05/16 03:07:51;;;;;;;10.18;2.80;;;;;;;19.40;33.17;98871.88;4994910;28;20026;-49
2022/05/16 03:10:17;;;;;;;9.95;2.65;;;;;;;19.37;33.18;98875.88;5012618;28;20025;-48
2022/05/16 03:12:46;;;;;;;8.60;2.53;;;;;;;19.33;33.48;98878.22;5012549;28;20022;-49
2022/05/16 03:15:13;;;;;;;12.60;2.53;;;;;;;19.30;33.33;98878.75;5012467;28;20032;-48
2022/05/16 03:17:40;;;;;;;12.63;2.70;;;;;;;19.28;33.57;98880.06;5011170;28;20083;-48
2022/05/16 03:20:12;;;;;;;9.10;2.40;;;;;;;19.29;33.37;98885.09;4994727;28;20411;-49
2022/05/16 03:22:38;;;;;;;8.98;2.33;;;;;;;19.30;33.16;98881.41;4994772;28;20026;-49
2022/05/16 03:25:05;;;;;;;8.63;2.60;;;;;;;19.29;33.27;98890.44;5012335;28;20499;-48
2022/05/16 03:27:31;;;;;;;6.55;2.15;;;;;;;19.29;33.33;98895.75;5011692;28;20025;-49
2022/05/16 03:29:56;;;;;;;5.68;2.30;;;;;;;19.30;33.20;98884.06;4994503;28;20034;-48
2022/05/16 03:32:22;;;;;;;9.00;2.13;;;;;;;19.30;33.40;98883.28;5012230;28;20030;-48
2022/05/16 03:34:50;;;;;;;10.40;2.35;;;;;;;19.27;33.63;98889.06;4994613;28;20456;-49
2022/05/16 03:37:17;;;;;;;11.68;2.60;;;;;;;19.22;34.04;98894.38;4994549;28;20635;-49
2022/05/16 03:42:30;;;;;;;19.63;2.95;;;;;;;19.10;34.53;98915.81;5012235;28;20069;-49
2022/05/16 03:44:55;;;;;;;12.25;2.65;;;;;;;19.11;34.74;98920.84;5012108;28;20054;-48
2022/05/16 03:47:21;;;;;;;10.27;2.50;;;;;;;19.15;34.78;98929.13;5012112;28;20056;-48
2022/05/16 03:49:47;;;;;;;11.05;2.72;;;;;;;19.17;34.56;98929.69;5012109;28;20053;-49
2022/05/16 03:52:14;;;;;;;20.67;2.92;;;;;;;19.20;34.16;98933.72;5012023;28;20026;-48
2022/05/16 03:54:40;;;;;;;18.00;3.10;;;;;;;19.26;33.90;98932.72;5011867;28;20065;-49
2022/05/16 03:57:06;;;;;;;14.60;3.28;;;;;;;19.33;33.43;98926.13;5011977;28;20030;-49
2022/05/16 03:59:32;;;;;;;10.75;2.50;;;;;;;19.38;33.28;98932.53;5012024;28;20032;-49
2022/05/16 04:01:58;;;;;;;9.68;2.45;;;;;;;19.39;33.34;98931.50;5011907;28;20100;-49
2022/05/16 04:04:25;;;;;;;13.25;2.35;;;;;;;19.43;33.07;98936.06;4994273;28;20026;-49
2022/05/16 04:06:51;;;;;;;9.43;2.33;;;;;;;19.46;33.42;98934.78;5011807;28;20026;-49
2022/05/16 04:09:16;;;;;;;10.73;2.15;;;;;;;19.50;33.42;98935.88;5011887;28;20068;-49
2022/05/16 04:11:42;;;;;;;12.93;3.20;;;;;;;19.47;34.21;98939.03;4994186;28;20080;-48
2022/05/16 04:14:08;;;;;;;13.35;3.35;;;;;;;19.28;39.52;98935.94;5011830;28;20396;-49
2022/05/16 04:16:34;;;;;;;16.42;3.35;;;;;;;18.81;41.30;98931.94;5011826;28;20041;-48
2022/05/16 04:18:59;;;;;;;10.20;2.60;;;;;;;18.42;42.92;98939.94;4994117;28;20030;-48
2022/05/16 04:21:25;;;;;;;16.33;4.13;;;;;;;18.08;44.46;98944.50;5011695;28;20084;-48
2022/05/16 04:23:51;;;;;;;14.93;3.00;;;;;;;17.77;45.19;98950.13;5011785;28;20030;-48
2022/05/16 04:26:17;;;;;;;10.93;2.63;;;;;;;17.54;45.57;98942.28;4994058;28;20484;-48
2022/05/16 04:28:42;;;;;;;9.65;2.95;;;;;;;17.40;46.41;98954.25;5011535;28;20117;-49
2022/05/16 04:31:08;;;;;;;14.60;2.83;;;;;;;17.31;46.41;98948.53;4993964;28;20026;-48
2022/05/16 04:33:35;;;;;;;10.80;2.53;;;;;;;17.24;46.85;98953.94;5011669;28;20153;-49
2022/05/16 04:36:02;;;;;;;10.20;2.72;;;;;;;17.23;48.08;98949.72;5011571;28;20396;-48
2022/05/16 04:38:28;;;;;;;13.15;2.40;;;;;;;17.18;48.68;98949.59;4993993;28;20022;-49
2022/05/16 04:43:38;;;;;;;15.60;3.05;;;;;;;17.24;47.55;98953.16;5015342;28;20153;-48
2022/05/16 04:46:05;;;;;;;12.13;2.92;;;;;;;17.33;47.56;98949.88;5015206;28;20105;-49
2022/05/16 04:48:31;;;;;;;11.30;3.53;;;;;;;17.45;47.51;98943.72;5015085;28;20109;-49
2022/05/16 04:50:57;;;;;;;10.43;2.92;;;;;;;17.42;46.38;98945.00;5015093;28;20108;-49
2022/05/16 04:53:24;;;;;;;11.95;3.67;;;;;;;17.42;45.13;98952.16;5015090;28;20438;-49
2022/05/16 04:55:50;;;;;;;11.65;2.75;;;;;;;17.59;42.64;98953.00;5014804;28;20490;-49
2022/05/16 04:58:15;;;;;;;12.10;2.85;;;;;;;17.76;43.68;98956.47;5015012;28;20030;-49
2022/05/16 05:00:41;;;;;;;12.98;3.50;;;;;;;17.90;43.65;98964.94;4997310;28;20029;-49
2022/05/16 05:03:07;;;;;;;17.00;3.50;;;;;;;18.01;45.00;98971.25;4997251;28;20088;-48
2022/05/16 05:05:35;;;;;;;17.55;3.33;;;;;;;17.98;46.66;98968.25;5014775;28;20415;-49
2022/05/16 05:08:01;;;;;;;16.25;4.32;;;;;;;17.71;48.43;98987.44;5014765;28;20064;-48
2022/05/16 05:16:14;;;;;;;19.40;4.05;;;;;;;16.62;57.68;99023.47;5014763;28;20041;-51
2022/05/16 05:18:41;;;;;;;22.67;5.90;;;;;;;16.31;58.87;99021.97;5014693;28;20386;-52
2022/05/16 05:21:08;;;;;;;42.22;5.47;;;;;;;16.01;60.70;99028.13;5014520;28;20029;-52
2022/05/16 05:23:34;;;;;;;42.22;5.32;;;;;;;15.82;62.14;99026.59;5014595;28;20033;-51
2022/05/16 05:26:01;;;;;;;11.73;3.40;;;;;;;15.65;61.19;99016.59;5014455;28;20018;-52
2022/05/16 05:28:27;;;;;;;17.17;4.25;;;;;;;15.48;61.37;99032.31;5014603;28;20166;-52
2022/05/16 05:30:53;;;;;;;11.80;3.50;;;;;;;15.38;62.84;99032.03;5014399;28;20030;-52
2022/05/16 05:33:18;;;;;;;12.63;2.88;;;;;;;15.26;63.23;99026.69;5014397;28;20512;-52
2022/05/16 05:35:44;;;;;;;9.40;2.60;;;;;;;15.10;62.73;99014.06;5014275;28;20022;-51
2022/05/16 05:38:09;;;;;;;14.15;2.95;;;;;;;15.00;62.58;99019.88;5014311;28;20033;-52
2022/05/16 05:40:37;;;;;;;9.60;2.45;;;;;;;14.83;61.40;99021.47;5014173;28;20029;-52
2022/05/16 05:43:07;;;;;;;6.97;2.35;;;;;;;14.52;61.53;99029.25;5014186;28;20025;-52
2022/05/16 05:45:34;;;;;;;7.30;1.98;;;;;;;14.29;62.31;99031.72;5014439;28;20054;-51
2022/05/16 05:48:01;;;;;;;6.95;2.00;;;;;;;14.26;61.63;99051.41;5013972;28;20097;-51
2022/05/16 05:50:27;;;;;;;10.90;2.38;;;;;;;14.30;62.98;99051.81;4995901;28;20391;-51
2022/05/16 05:52:53;;;;;;;8.95;2.50;;;;;;;14.37;63.05;99052.56;5013825;28;20057;-51
2022/05/16 05:55:20;;;;;;;11.43;3.33;;;;;;;14.32;63.99;99062.97;5013703;28;20077;-51
2022/05/16 05:57:45;;;;;;;12.52;3.10;;;;;;;14.35;63.28;99078.38;5013858;28;20112;-51
2022/05/16 06:00:12;;;;;;;6.32;2.25;;;;;;;14.34;64.01;99063.56;5013832;28;20611;-51
2022/05/16 06:02:40;;;;;;;10.85;2.58;;;;;;;14.37;64.24;99057.84;5013786;28;20022;-51
2022/05/16 06:05:12;;;;;;;10.32;2.85;;;;;;;14.49;63.13;99056.13;5013747;28;20017;-51
2022/05/16 06:07:37;;;;;;;11.45;2.55;;;;;;;14.62;63.55;99075.56;5013731;28;20030;-51
2022/05/16 06:10:05;;;;;;;13.55;3.15;;;;;;;14.82;63.94;99078.81;4995961;28;20038;-51
2022/05/16 06:12:31;;;;;;;11.70;2.60;;;;;;;14.99;64.51;99076.41;5013689;28;20068;-51
2022/05/16 06:14:57;;;;;;;14.77;3.75;;;;;;;15.20;65.61;99087.59;5013596;28;20033;-51
2022/05/16 06:17:22;;;;;;;14.77;3.60;;;;;;;15.42;66.60;99078.16;5013534;28;20030;-51
2022/05/16 06:19:49;;;;;;;16.48;4.47;;;;;;;15.59;66.06;99075.72;4995794;28;20033;-52
2022/05/16 06:22:15;;;;;;;24.85;5.05;;;;;;;15.69;66.68;99068.03;5013466;28;20037;-51
2022/05/16 06:27:28;;;;;;;11.20;3.40;;;;;;;15.89;65.27;99065.16;5013560;28;20080;-51
2022/05/16 06:29:58;;;;;;;10.10;3.03;;;;;;;15.92;64.13;99059.44;5013283;28;20018;-51
2022/05/16 06:32:25;;;;;;;11.07;3.03;;;;;;;15.86;64.49;99062.97;5013245;28;20029;-50
2022/05/16 06:34:52;;;;;;;12.70;3.28;;;;;;;15.93;63.62;99073.47;5013191;28;20167;-50
2022/05/16 06:37:18;;;;;;;13.02;3.00;;;;;;;16.16;62.38;99084.13;5013146;28;20026;-51
2022/05/16 06:39:45;;;;;;;15.20;3.97;;;;;;;16.46;61.53;99085.91;5013104;28;20164;-51
2022/05/16 06:42:11;;;;;;;24.00;4.68;;;;;;;17.12;60.59;99083.16;5013146;28;20022;-51
2022/05/16 06:44:38;;;;;;;25.25;3.75;;;;;;;17.94;57.09;99074.16;5013064;28;20472;-51
2022/05/16 06:47:05;;;;;;;12.40;3.03;;;;;;;18.89;55.19;99066.34;5012788;28;20018;-51
2022/05/16 06:49:31;;;;;;;14.35;3.63;;;;;;;20.58;52.09;99057.44;4995342;28;20037;-51
2022/05/16 06:51:57;;;;;;;17.08;2.80;;;;;;;21.88;46.54;99058.56;5012914;28;20018;-47
2022/05/16 06:54:23;;;;;;;10.68;3.15;;;;;;;21.58;47.30;99058.50;5012609;28;20034;-48
2022/05/16 06:56:49;;;;;;;21.20;4.50;;;;;;;20.70;48.13;99058.06;5012814;28;20396;-47
2022/05/16 06:59:14;;;;;;;10.38;3.03;;;;;;;20.05;49.54;99059.97;5012736;28;20060;-48
2022/05/16 07:01:40;;;;;;;34.25;6.97;;;;;;;19.55;52.34;99061.84;5012648;28;20077;-50
2022/05/16 07:04:06;;;;;;;63.28;8.98;;;;;;;19.27;53.55;99078.00;5011772;28;20018;-50
2022/05/16 07:06:32;;;;;;;40.55;5.00;;;;;;;19.08;54.01;99074.88;5012600;28;20514;-50
2022/05/16 07:08:58;;;;;;;56.85;8.82;;;;;;;19.12;54.41;99073.31;5012599;28;20443;-50
2022/05/16 07:11:23;;;;;;;112.30;16.45;;;;;;;19.11;52.18;99082.34;4994926;28;20064;-51
2022/05/16 07:13:49;;;;;;;189.13;27.33;;;;;;;19.03;51.72;99080.91;5012509;28;20069;-50
2022/05/16 07:16:15;;;;;;;237.88;35.08;;;;;;;18.96;52.59;99075.75;5012415;28;20021;-50
2022/05/16 07:18:40;;;;;;;250.27;37.05;;;;;;;19.04;50.73;99077.22;5012349;28;20030;-50
2022/05/16 07:21:07;;;;;;;231.50;36.00;;;;;;;19.69;49.13;99070.25;5012404;28;20084;-50
2022/05/16 07:23:33;;;;;;;180.23;28.70;;;;;;;20.82;47.00;99060.53;5012344;28;20022;-50
2022/05/16 07:28:43;;;;;;;159.05;23.77;;;;;;;22.39;44.25;99073.03;5012303;28;20116;-51
2022/05/16 07:31:10;;;;;;;185.38;30.67;;;;;;;22.06;44.00;99065.25;5012254;28;20104;-48
2022/05/16 07:33:36;;;;;;;154.50;30.63;;;;;;;21.51;45.44;99072.09;5012127;28;20025;-48
2022/05/16 07:36:02;;;;;;;132.35;24.50;;;;;;;21.26;45.97;99075.44;5012236;28;20033;-48
2022/05/16 07:38:28;;;;;;;102.68;19.88;;;;;;;21.22;46.65;99072.50;5012477;28;20040;-48
2022/05/16 07:40:55;;;;;;;87.30;18.63;;;;;;;21.32;46.44;99077.88;4994498;28;20403;-48
2022/05/16 07:43:22;;;;;;;55.67;11.80;;;;;;;21.31;46.41;99075.47;5012179;28;20600;-48
2022/05/16 07:45:48;;;;;;;92.00;14.07;;;;;;;21.33;45.88;99070.69;4994419;28;20028;-48
2022/05/16 07:48:15;;;;;;;119.50;21.38;;;;;;;21.37;45.95;99063.75;5011976;28;20484;-47
2022/05/16 07:50:41;;;;;;;79.60;15.15;;;;;;;21.82;45.06;99066.84;5012036;28;20018;-48
2022/05/16 07:53:12;;;;;;;54.13;10.90;;;;;;;22.51;43.55;99063.66;5012086;28;20049;-47
2022/05/16 07:55:48;;;;;;;126.68;21.00;;;;;;;23.50;42.10;99064.97;4979965;28;20047;-48
2022/05/16 07:58:14;;;;;;;107.13;19.13;;;;;;;25.06;39.39;99057.00;4973039;28;20035;-48
2022/05/16 08:00:41;;;;;;;63.53;13.00;;;;;;;25.70;36.28;99049.50;4972952;28;20015;-49
2022/05/16 08:03:15;;;;;;;78.00;15.25;;;;;;;25.88;35.82;99044.41;4972943;28;20523;-48
2022/05/16 08:05:42;;;;;;;91.82;19.10;;;;;;;26.08;36.03;99035.25;4971651;28;20041;-48
2022/05/16 08:10:53;;;;;;;65.93;16.23;;;;;;;28.45;32.68;99021.09;4973149;28;20460;-49
2022/05/16 08:13:19;;;;;;;75.55;12.77;;;;;;;29.90;30.34;99016.66;4971621;28;20034;-49
2022/05/16 08:15:46;;;;;;;65.50;11.80;;;;;;;31.14;28.13;99027.56;4976305;28;20031;-49
2022/05/16 08:18:12;;;;;;;80.32;13.57;;;;;;;31.65;27.09;99025.63;4975404;28;20121;-49
2022/05/16 08:20:42;;;;;;;39.53;6.97;;;;;;;31.77;27.08;99030.28;4976642;28;20045;-49
2022/05/16 08:23:09;;;;;;;51.75;10.07;;;;;;;31.44;27.00;99031.03;4976707;28;20030;-49
2022/05/16 08:25:35;;;;;;;30.95;5.78;;;;;;;30.57;27.63;99036.13;4976550;28;20031;-49
2022/05/16 08:28:00;;;;;;;26.65;4.75;;;;;;;29.68;28.96;99039.28;4976464;28;20031;-49
2022/05/16 08:30:26;;;;;;;34.80;6.68;;;;;;;28.98;29.37;99030.25;4976440;28;20019;-49
2022/05/16 08:32:55;;;;;;;79.88;14.50;;;;;;;28.38;30.60;99040.47;4975148;28;20092;-49
2022/05/16 08:35:23;;;;;;;72.05;13.18;;;;;;;27.95;31.53;99041.00;4976439;28;20019;-49
2022/05/16 08:40:46;;;;;;;;;;;;;;;27.73;32.51;99044.44;4976888;28;20436;-49
2022/05/16 08:43:27;;;;;;;77.15;16.38;;;;;;;27.77;32.28;99042.75;4975168;28;19914;-48
2022/05/16 08:46:08;;;;;;;189.98;37.53;;;;;;;28.04;34.21;99038.34;4976268;28;20035;-49
2022/05/16 08:48:39;;;;;;;182.82;31.48;;;;;;;28.04;32.18;99039.13;4976152;28;20031;-49
2022/05/16 08:51:26;;;;;;;91.30;17.60;;;;;;;27.92;32.99;99030.81;4976237;28;20030;-48
2022/05/16 08:54:45;;;;;;;43.72;10.27;;;;;;;28.24;31.53;99031.66;4976598;28;20037;-49
2022/05/16 08:57:15;;;;;;;36.83;7.60;;;;;;;28.94;29.83;99021.97;4935274;29;20052;-49
2022/05/16 08:59:47;;;;;;;140.45;25.27;;;;;;;30.16;27.88;99023.94;4919333;29;20040;-49
2022/05/16 09:02:24;;;;;;;71.85;15.80;;;;;;;31.12;25.92;99021.66;4935312;29;20071;-48
2022/05/16 09:05:34;;;;;;;61.40;11.35;;;;;;;31.50;24.28;99018.09;4935318;29;20075;-49
2022/05/16 09:08:00;;;;;;;82.60;15.43;;;;;;;31.82;24.34;99023.88;4932395;29;20043;-48
2022/05/16 09:10:46;;;;;;;89.72;15.90;;;;;;;32.13;23.78;99030.78;4919125;29;20059;-50
2022/05/16 09:13:21;;;;;;;57.42;13.13;;;;;;;31.72;24.11;99032.44;4934977;29;20048;-49
2022/05/16 09:15:57;;;;;;;39.42;8.30;;;;;;;31.60;24.12;99033.16;4934948;29;20028;-49
2022/05/16 09:18:38;;;;;;;58.85;10.60;;;;;;;32.31;23.73;99024.03;4934741;29;20086;-48
2022/05/16 09:21:24;;;;;;;36.67;8.52;;;;;;;32.97;22.47;99019.56;4918994;29;20028;-49
2022/05/16 09:24:05;;;;;;;25.15;6.07;;;;;;;33.51;22.53;99016.53;4934941;29;20144;-50
2022/05/16 09:26:42;;;;;;;20.55;5.40;;;;;;;34.44;21.22;99018.25;4933664;29;20039;-49
2022/05/16 09:29:27;;;;;;;30.60;6.90;;;;;;;34.94;20.84;99016.72;4918694;29;20112;-49
2022/05/16 09:32:04;;;;;;;16.95;4.38;;;;;;;34.99;20.40;99012.91;4945777;28;20039;-49
2022/05/16 09:34:31;;;;;;;37.38;6.95;;;;;;;34.99;20.69;99010.19;4974037;28;20073;-49
2022/05/16 09:36:56;;;;;;;15.35;3.58;;;;;;;34.97;20.29;99010.56;4975266;28;20019;-50
2022/05/16 09:39:25;;;;;;;27.10;4.80;;;;;;;35.01;20.27;99010.63;4973862;28;20045;-49
2022/05/16 09:42:04;;;;;;;13.88;3.65;;;;;;;34.77;20.32;99012.44;4973852;28;20015;-49
2022/05/16 09:44:34;;;;;;;13.75;3.72;;;;;;;34.57;20.26;99017.00;4975439;28;20069;-49
2022/05/16 09:47:22;;;;;;;8.35;3.22;;;;;;;34.91;20.20;99009.22;4973810;28;20035;-49
2022/05/16 09:50:02;;;;;;;5.47;2.80;;;;;;;35.65;19.84;99010.41;4975118;28;20018;-50
2022/05/16 09:52:34;;;;;;;20.75;4.72;;;;;;;36.33;18.92;99007.00;4973602;28;20031;-50
2022/05/16 09:55:06;;;;;;;10.60;3.03;;;;;;;36.62;18.74;99007.47;4986689;28;20466;-50
2022/05/16 09:57:59;;;;;;;9.93;2.80;;;;;;;36.74;17.73;99003.75;4996439;28;20057;-50
2022/05/16 10:00:38;;;;;;;19.33;2.95;;;;;;;36.66;18.25;99004.81;4996270;28;20025;-50
2022/05/16 10:03:22;;;;;;;35.88;7.22;;;;;;;37.10;17.72;99002.31;5013864;28;20438;-50
2022/05/16 10:05:51;;;;;;;48.70;8.80;;;;;;;37.52;17.36;98995.81;5014092;28;20061;-50
2022/05/16 10:08:31;;;;;;;29.67;6.03;;;;;;;37.73;17.25;98991.75;5013636;28;20026;-50
2022/05/16 10:11:00;;;;;;;64.50;13.98;;;;;;;38.12;17.34;98989.44;5013693;28;20492;-50
2022/05/16 10:13:26;;;;;;;123.60;22.98;;;;;;;37.95;17.46;99000.97;5013599;28;20101;-50
2022/05/16 10:15:56;;;;;;;89.38;15.93;;;;;;;37.88;16.96;98998.19;4995972;28;20129;-50
2022/05/16 10:18:24;;;;;;;48.13;10.93;;;;;;;38.27;17.06;98995.03;5013910;28;20410;-50
2022/05/16 10:20:58;;;;;;;19.67;4.90;;;;;;;38.22;16.92;99000.88;5013504;28;20399;-50
2022/05/16 10:23:28;;;;;;;17.08;3.83;;;;;;;38.26;16.91;99004.44;5013508;28;20442;-50
2022/05/16 10:25:59;;;;;;;9.23;3.17;;;;;;;38.28;16.95;98996.63;4995755;28;20077;-50
2022/05/16 10:28:32;;;;;;;11.82;3.58;;;;;;;38.64;16.28;99002.41;5013238;28;20069;-52
2022/05/16 10:34:08;;;;;;;18.50;4.13;;;;;;;39.49;16.39;99004.84;4952753;29;20050;-52
2022/05/16 10:36:35;;;;;;;18.38;4.32;;;;;;;39.32;16.54;99008.28;4936430;28;20043;-52
2022/05/16 10:39:06;;;;;;;15.00;4.07;;;;;;;38.89;16.31;99011.56;4952737;29;20199;-53
2022/05/16 10:41:58;;;;;;;41.45;9.65;;;;;;;39.12;16.78;99005.84;4952568;29;20074;-53
2022/05/16 10:44:33;;;;;;;8.68;3.20;;;;;;;39.37;16.40;98996.16;4940187;29;20035;-53
2022/05/16 10:46:59;;;;;;;20.75;6.03;;;;;;;39.75;16.12;98997.47;4952565;29;20058;-52
2022/05/16 10:49:33;;;;;;;63.47;11.55;;;;;;;39.74;16.04;98998.63;4952407;29;20039;-53
2022/05/16 10:52:18;;;;;;;35.40;7.18;;;;;;;39.31;16.70;98992.97;4952524;29;20066;-53
2022/05/16 10:54:43;;;;;;;27.25;6.45;;;;;;;38.63;17.05;98996.13;4952225;29;20117;-52
2022/05/16 10:57:44;;;;;;;16.27;4.03;;;;;;;38.63;17.08;98993.38;4936252;29;20047;-53
2022/05/16 11:00:18;;;;;;;13.00;3.30;;;;;;;38.65;17.31;98990.25;4952369;29;20043;-52
2022/05/16 11:02:59;;;;;;;9.98;2.95;;;;;;;38.61;16.82;98989.44;4952307;29;20043;-53
2022/05/16 11:05:39;;;;;;;8.32;3.17;;;;;;;37.68;17.57;98992.13;4936098;29;20038;-53
2022/05/16 11:08:29;;;;;;;24.30;6.28;;;;;;;37.99;18.26;98979.88;4952201;29;20027;-50
2022/05/16 11:10:58;;;;;;;41.20;8.90;;;;;;;38.40;17.48;98984.59;5012688;28;20030;-50
2022/05/16 11:13:39;;;;;;;11.75;3.25;;;;;;;37.94;17.70;98994.72;4994898;28;20026;-53
2022/05/16 11:16:21;;;;;;;14.43;3.60;;;;;;;37.33;17.34;98993.25;5012520;28;20511;-52
2022/05/16 11:19:05;;;;;;;8.07;2.65;;;;;;;37.17;17.76;98991.50;4994896;28;20037;-50
2022/05/16 11:21:56;;;;;;;13.32;2.90;;;;;;;36.77;17.73;98984.66;5012512;28;20034;-49
2022/05/16 11:24:34;;;;;;;8.95;3.00;;;;;;;36.15;18.42;98992.25;5012337;28;20403;-49
2022/05/16 11:27:15;;;;;;;10.63;2.85;;;;;;;35.58;18.88;98986.50;5012262;28;20040;-50
2022/05/16 11:30:01;;;;;;;8.57;3.10;;;;;;;34.68;19.26;98990.03;4994670;28;20029;-50
2022/05/16 11:32:27;;;;;;;9.10;2.47;;;;;;;33.84;20.37;98985.56;5012267;28;20555;-50
2022/05/16 11:35:27;;;;;;;12.05;3.13;;;;;;;33.25;20.74;98987.00;5012086;28;20097;-50
2022/05/16 11:38:04;;;;;;;10.30;2.97;;;;;;;33.16;21.72;98981.72;4994381;28;20415;-48
2022/05/16 11:40:36;;;;;;;11.75;3.47;;;;;;;33.91;21.11;98974.84;5012103;28;20038;-49
2022/05/16 11:43:10;;;;;;;7.13;2.50;;;;;;;34.11;20.15;98967.59;5012149;28;20081;-49
2022/05/16 11:46:12;;;;;;;10.88;3.30;;;;;;;33.90;20.73;98972.47;5011958;28;20026;-49
2022/05/16 11:48:55;;;;;;;11.75;3.65;;;;;;;33.42;21.15;98975.84;5011615;28;20369;-49
2022/05/16 11:51:49;;;;;;;11.97;3.70;;;;;;;33.04;21.13;98970.81;5012073;28;20018;-49
2022/05/16 11:54:19;;;;;;;11.05;4.07;;;;;;;32.94;21.50;98974.00;5011955;28;20061;-49
2022/05/16 12:02:42;;;;;;;13.75;2.88;;;;;;;32.45;22.12;98963.94;5012240;28;20069;-49
2022/05/16 12:05:20;;;;;;;14.32;2.92;;;;;;;32.52;21.96;98955.22;4994281;28;20108;-49
2022/05/16 12:07:52;;;;;;;11.27;3.30;;;;;;;32.73;21.73;98947.75;4994082;28;20026;-49
2022/05/16 12:10:27;;;;;;;25.73;5.95;;;;;;;33.20;21.51;98951.88;5012114;28;20517;-50
2022/05/16 12:13:18;;;;;;;11.35;3.53;;;;;;;33.02;21.64;98948.59;5011868;28;20026;-49
2022/05/16 12:15:44;;;;;;;9.93;3.05;;;;;;;33.07;22.25;98947.59;5011773;28;20018;-49
2022/05/16 12:18:39;;;;;;;9.88;3.03;;;;;;;32.96;21.61;98953.50;5011689;28;20030;-49
2022/05/16 12:21:32;;;;;;;12.85;3.67;;;;;;;32.98;21.57;98945.81;5011764;28;20018;-49
2022/05/16 12:24:02;;;;;;;9.73;2.78;;;;;;;33.68;21.53;98950.13;5006425;28;20053;-49